Time;durP1;ratioP1;P1;durP2;ratioP2;P2;SDS_P1;SDS_P2;PMS_P1;PMS_P2;Temp;Humidity;BMP_temperature;BMP_pressure;BME280_temperature;BME280_humidity;BME280_pressure;Samples;Min_cycle;Max_cycle;Signal;HPM_P1;HPM_P2
2023/12/20 00:00:17;;;;;;;11.50;11.10;;;6.20;99.90;;;;;;5132475;28;20296;-86
2023/12/20 00:02:59;;;;;;;11.20;10.80;;;6.20;99.90;;;;;;5126967;28;20220;-85
2023/12/20 00:05:27;;;;;;;11.83;11.43;;;6.20;99.90;;;;;;5131865;28;20243;-84
2023/12/20 00:08:06;;;;;;;11.70;11.30;;;6.20;99.90;;;;;;5128594;27;20255;-86
2023/12/20 00:10:37;;;;;;;11.53;11.13;;;6.20;99.90;;;;;;5133363;27;20236;-86
2023/12/20 00:13:06;;;;;;;11.60;11.20;;;6.20;99.90;;;;;;5126994;28;20224;-85
2023/12/20 00:15:34;;;;;;;10.97;10.63;;;6.20;99.90;;;;;;5132314;28;20243;-85
2023/12/20 00:18:03;;;;;;;11.30;10.90;;;6.20;99.90;;;;;;5133385;28;20232;-85
2023/12/20 00:20:33;;;;;;;10.73;10.43;;;6.20;99.90;;;;;;5133005;28;20290;-85
2023/12/20 00:23:02;;;;;;;10.80;10.50;;;6.20;99.90;;;;;;5133748;28;20229;-85
2023/12/20 00:25:31;;;;;;;11.07;10.67;;;6.20;99.90;;;;;;5132240;28;20233;-86
2023/12/20 00:30:59;;;;;;;11.10;10.70;;;6.20;99.90;;;;;;5125360;28;20253;-85
2023/12/20 00:36:13;;;;;;;11.07;10.67;;;6.10;99.90;;;;;;5124861;28;20224;-86
2023/12/20 00:38:43;;;;;;;10.60;10.30;;;6.20;99.90;;;;;;5134907;28;20251;-84
2023/12/20 00:46:46;;;;;;;11.07;10.73;;;6.20;99.90;;;;;;5126956;28;20274;-84
2023/12/20 00:49:16;;;;;;;10.90;10.50;;;6.10;99.90;;;;;;5118704;28;20251;-85
2023/12/20 00:51:45;;;;;;;11.30;10.90;;;6.20;99.90;;;;;;5115495;28;20241;-84
2023/12/20 00:54:25;;;;;;;10.50;10.20;;;6.10;99.90;;;;;;5122629;28;20247;-85
2023/12/20 00:56:52;;;;;;;10.83;10.43;;;6.10;99.90;;;;;;5121856;28;20215;-86
2023/12/20 01:02:11;;;;;;;10.07;9.77;;;6.10;99.90;;;;;;5118635;27;20213;-83
2023/12/20 01:04:40;;;;;;;10.33;10.03;;;6.10;99.90;;;;;;5140185;27;20223;-84
2023/12/20 01:07:07;;;;;;;10.63;10.33;;;6.10;99.90;;;;;;5130983;28;20225;-85
2023/12/20 01:09:47;;;;;;;10.83;10.53;;;6.10;99.90;;;;;;5128623;28;20241;-83
2023/12/20 01:12:15;;;;;;;11.00;10.60;;;6.00;99.90;;;;;;5135466;28;20271;-85
2023/12/20 01:14:47;;;;;;;10.80;10.50;;;6.00;99.90;;;;;;5134902;27;20251;-85
2023/12/20 01:17:15;;;;;;;10.80;10.50;;;6.00;99.90;;;;;;5139724;28;20286;-85
2023/12/20 01:19:44;;;;;;;11.23;10.83;;;6.00;99.90;;;;;;5136949;28;20248;-85
2023/12/20 01:22:13;;;;;;;11.20;10.80;;;6.00;99.90;;;;;;5137526;27;20237;-85
2023/12/20 01:27:40;;;;;;;11.03;10.73;;;6.00;99.90;;;;;;5133006;28;20228;-84
2023/12/20 01:32:55;;;;;;;11.10;10.70;;;6.00;99.90;;;;;;5132981;28;20223;-85
2023/12/20 01:35:24;;;;;;;10.07;9.77;;;5.90;99.90;;;;;;5133275;28;20232;-85
2023/12/20 01:38:03;;;;;;;10.47;10.17;;;5.90;99.90;;;;;;5133088;28;20216;-84
2023/12/20 01:40:32;;;;;;;10.70;10.40;;;5.90;99.90;;;;;;5130959;28;20330;-85
2023/12/20 01:43:02;;;;;;;10.47;10.17;;;6.00;99.90;;;;;;5130751;28;20232;-83
2023/12/20 01:48:18;;;;;;;10.40;10.10;;;5.90;99.90;;;;;;5131299;28;20209;-85
2023/12/20 01:50:47;;;;;;;10.63;10.33;;;5.90;99.90;;;;;;5129951;28;20244;-85
2023/12/20 01:53:16;;;;;;;10.57;10.27;;;5.80;99.90;;;;;;5130361;28;20229;-85
2023/12/20 01:55:46;;;;;;;10.60;10.30;;;5.90;99.90;;;;;;5130942;28;20221;-85
2023/12/20 01:58:16;;;;;;;10.47;10.17;;;5.90;99.90;;;;;;5130581;28;20282;-84
2023/12/20 02:03:42;;;;;;;10.70;10.40;;;5.90;99.90;;;;;;5130951;28;20209;-85
2023/12/20 02:06:12;;;;;;;10.30;10.00;;;5.90;99.90;;;;;;5111794;28;20720;-85
2023/12/20 02:08:51;;;;;;;10.10;9.80;;;5.70;99.90;;;;;;5126211;28;20224;-85
2023/12/20 02:11:20;;;;;;;10.50;10.20;;;5.70;99.90;;;;;;5127751;28;20236;-85
2023/12/20 02:13:59;;;;;;;10.43;10.13;;;5.70;99.90;;;;;;5128129;28;20242;-85
2023/12/20 02:16:30;;;;;;;10.30;10.00;;;5.70;99.90;;;;;;5109140;28;20228;-84
2023/12/20 02:18:57;;;;;;;10.33;10.03;;;5.60;99.90;;;;;;5129330;28;20232;-84
2023/12/20 02:21:35;;;;;;;10.00;9.70;;;5.60;99.90;;;;;;5129459;28;20232;-84
2023/12/20 02:24:14;;;;;;;10.20;9.90;;;5.50;99.90;;;;;;5132545;28;20229;-84
2023/12/20 02:26:42;;;;;;;9.97;9.67;;;5.50;99.90;;;;;;5131737;28;20274;-84
2023/12/20 02:29:21;;;;;;;9.90;9.60;;;5.40;99.90;;;;;;5129986;28;20225;-83
2023/12/20 02:32:00;;;;;;;10.43;10.13;;;5.40;99.90;;;;;;5130369;28;20233;-84
2023/12/20 02:34:29;;;;;;;10.30;10.00;;;5.30;99.90;;;;;;5127969;28;20232;-84
2023/12/20 02:37:00;;;;;;;10.50;10.20;;;5.20;99.90;;;;;;5129017;28;20233;-84
2023/12/20 02:39:28;;;;;;;10.60;10.30;;;5.30;99.90;;;;;;5128452;28;20221;-84
2023/12/20 02:42:07;;;;;;;10.50;10.20;;;5.20;99.90;;;;;;5123824;28;20233;-84
2023/12/20 02:44:36;;;;;;;10.33;10.03;;;5.20;99.90;;;;;;5108955;28;20229;-84
2023/12/20 02:47:04;;;;;;;10.60;10.30;;;5.20;99.90;;;;;;5122344;28;20232;-85
2023/12/20 02:49:44;;;;;;;10.30;10.00;;;5.20;99.90;;;;;;5127621;28;20290;-85
2023/12/20 02:52:14;;;;;;;10.60;10.30;;;5.20;99.90;;;;;;5128517;28;20233;-84
2023/12/20 02:54:42;;;;;;;10.30;10.00;;;5.20;99.90;;;;;;5129005;28;20237;-85
2023/12/20 02:57:21;;;;;;;10.50;10.20;;;5.20;99.90;;;;;;5128070;28;20294;-84
2023/12/20 02:59:49;;;;;;;10.33;10.03;;;5.20;99.90;;;;;;5128698;28;20212;-85
2023/12/20 03:02:28;;;;;;;10.90;10.50;;;5.20;99.90;;;;;;5120321;28;20291;-85
2023/12/20 03:04:57;;;;;;;10.87;10.50;;;5.10;99.90;;;;;;5121350;28;20236;-85
2023/12/20 03:12:52;;;;;;;11.07;10.67;;;4.90;99.90;;;;;;5113699;27;20277;-82
2023/12/20 03:15:21;;;;;;;11.00;10.60;;;4.90;99.90;;;;;;5116433;27;20229;-83
2023/12/20 03:18:00;;;;;;;11.00;10.60;;;4.80;99.90;;;;;;5122721;28;20239;-84
2023/12/20 03:20:28;;;;;;;11.10;10.70;;;4.90;99.90;;;;;;5116467;28;20247;-84
2023/12/20 03:23:01;;;;;;;11.00;10.60;;;4.90;99.90;;;;;;5111088;28;20228;-85
2023/12/20 03:25:28;;;;;;;11.20;10.80;;;4.90;99.90;;;;;;5111039;28;20229;-85
2023/12/20 03:27:57;;;;;;;10.93;10.53;;;4.90;99.90;;;;;;5110746;28;20317;-85
2023/12/20 03:30:35;;;;;;;10.90;10.50;;;4.90;99.90;;;;;;5110900;28;20229;-84
2023/12/20 03:33:04;;;;;;;10.60;10.30;;;4.80;99.90;;;;;;5111179;28;20236;-84
2023/12/20 03:38:14;;;;;;;10.60;10.30;;;4.80;99.90;;;;;;5109598;28;20260;-84
2023/12/20 03:40:44;;;;;;;10.60;10.30;;;4.80;99.90;;;;;;5110320;28;20283;-85
2023/12/20 03:43:11;;;;;;;10.73;10.40;;;4.80;99.90;;;;;;5109911;28;20233;-85
2023/12/20 03:45:50;;;;;;;10.43;10.13;;;4.80;99.90;;;;;;5110306;28;20237;-85
2023/12/20 03:48:19;;;;;;;10.37;10.07;;;4.80;99.90;;;;;;5110454;28;20287;-84
2023/12/20 03:50:58;;;;;;;10.60;10.30;;;4.80;99.90;;;;;;5109277;28;20252;-85
2023/12/20 03:53:29;;;;;;;10.60;10.30;;;4.70;99.90;;;;;;5110232;28;20216;-84
2023/12/20 03:55:56;;;;;;;11.03;10.63;;;4.70;99.90;;;;;;5109937;28;20225;-85
2023/12/20 03:58:36;;;;;;;10.90;10.50;;;4.70;99.90;;;;;;5109561;28;20275;-83
2023/12/20 04:01:03;;;;;;;10.67;10.33;;;4.70;99.90;;;;;;5109538;28;20264;-84
2023/12/20 04:11:57;;;;;;;10.60;10.30;;;4.60;99.90;;;;;;5115723;28;20240;-85
2023/12/20 04:14:26;;;;;;;10.83;10.50;;;4.60;99.90;;;;;;5112950;28;20225;-84
2023/12/20 04:16:56;;;;;;;10.63;10.33;;;4.70;99.90;;;;;;5114331;28;20236;-83
2023/12/20 04:19:24;;;;;;;10.63;10.33;;;4.70;99.90;;;;;;5112329;28;20233;-84
2023/12/20 04:22:03;;;;;;;10.77;10.47;;;4.70;99.90;;;;;;5129614;28;20221;-84
2023/12/20 04:27:29;;;;;;;10.47;10.17;;;4.70;99.90;;;;;;5124110;28;20228;-84
2023/12/20 04:29:57;;;;;;;10.50;10.20;;;4.70;99.90;;;;;;5108929;28;20305;-85
2023/12/20 04:32:36;;;;;;;10.47;10.17;;;4.70;99.90;;;;;;5117862;28;20213;-85
2023/12/20 04:35:05;;;;;;;10.50;10.20;;;4.60;99.90;;;;;;5109567;28;20255;-84
2023/12/20 04:40:15;;;;;;;10.27;9.97;;;4.60;99.90;;;;;;5109598;28;20240;-84
2023/12/20 04:42:42;;;;;;;10.50;10.20;;;4.60;99.90;;;;;;5109747;28;20213;-83
2023/12/20 04:45:12;;;;;;;10.70;10.40;;;4.60;99.90;;;;;;5109404;28;20237;-85
2023/12/20 04:47:41;;;;;;;10.43;10.13;;;4.60;99.90;;;;;;5108988;28;20233;-84
2023/12/20 04:50:13;;;;;;;10.70;10.40;;;4.60;99.90;;;;;;5109077;28;20245;-85
2023/12/20 04:52:40;;;;;;;10.83;10.50;;;4.60;99.90;;;;;;5108672;28;20230;-83
2023/12/20 04:55:09;;;;;;;10.63;10.33;;;4.60;99.90;;;;;;5109290;28;20229;-84
2023/12/20 04:57:42;;;;;;;10.70;10.40;;;4.60;99.90;;;;;;5109410;28;20233;-84
2023/12/20 05:00:17;;;;;;;10.97;10.57;;;4.60;99.90;;;;;;5109083;28;20244;-84
2023/12/20 05:02:46;;;;;;;11.20;10.80;;;4.60;99.90;;;;;;5109268;28;20296;-84
2023/12/20 05:05:25;;;;;;;11.00;10.60;;;4.60;99.90;;;;;;5112193;28;20247;-82
2023/12/20 05:07:54;;;;;;;11.43;11.03;;;4.60;99.90;;;;;;5112186;27;20233;-84
2023/12/20 05:10:23;;;;;;;11.10;10.70;;;4.60;99.90;;;;;;5109358;28;20225;-84
2023/12/20 05:12:56;;;;;;;10.97;10.57;;;4.50;99.90;;;;;;5108444;28;20291;-84
2023/12/20 05:15:23;;;;;;;10.73;10.43;;;4.50;99.90;;;;;;5109480;28;20260;-85
2023/12/20 05:17:51;;;;;;;11.03;10.63;;;4.60;99.90;;;;;;5118467;28;20260;-84
2023/12/20 05:20:31;;;;;;;10.60;10.30;;;4.50;99.90;;;;;;5113068;28;20230;-85
2023/12/20 05:23:01;;;;;;;10.63;10.33;;;4.50;99.90;;;;;;5114611;28;20229;-83
2023/12/20 05:25:28;;;;;;;10.53;10.23;;;4.50;99.90;;;;;;5119919;28;20247;-84
2023/12/20 05:28:01;;;;;;;10.60;10.30;;;4.50;99.90;;;;;;5112792;28;20259;-83
2023/12/20 05:30:28;;;;;;;10.60;10.30;;;4.50;99.90;;;;;;5130150;28;20229;-83
2023/12/20 05:32:57;;;;;;;10.60;10.30;;;4.50;99.90;;;;;;5132957;27;20243;-82
2023/12/20 05:38:06;;;;;;;10.40;10.10;;;4.50;99.90;;;;;;5131475;28;20227;-82
2023/12/20 05:40:34;;;;;;;10.70;10.40;;;4.50;99.90;;;;;;5132105;28;20228;-83
2023/12/20 05:43:07;;;;;;;10.50;10.20;;;4.50;99.90;;;;;;5131877;28;20260;-83
2023/12/20 05:45:34;;;;;;;10.70;10.40;;;4.50;99.90;;;;;;5131162;28;20229;-83
2023/12/20 05:48:02;;;;;;;10.57;10.27;;;4.50;99.90;;;;;;5131123;28;20228;-83
2023/12/20 05:50:30;;;;;;;10.70;10.40;;;4.50;99.90;;;;;;5248334;22;20286;-80
2023/12/20 05:52:57;;;;;;;10.60;10.30;;;4.50;99.90;;;;;;5139509;27;20272;-80
2023/12/20 05:55:25;;;;;;;10.40;10.10;;;4.50;99.90;;;;;;5132055;27;20239;-80
2023/12/20 05:57:52;;;;;;;10.60;10.30;;;4.50;99.90;;;;;;5129218;27;20301;-82
2023/12/20 06:00:27;;;;;;;10.50;10.20;;;4.50;99.90;;;;;;5121759;28;20225;-83
2023/12/20 06:02:55;;;;;;;10.00;9.70;;;4.50;99.90;;;;;;5104202;28;20211;-81
2023/12/20 06:05:22;;;;;;;10.20;9.90;;;4.50;99.90;;;;;;5103956;28;20242;-83
2023/12/20 06:07:54;;;;;;;9.80;9.50;;;4.50;99.90;;;;;;5103914;28;20237;-84
2023/12/20 06:10:22;;;;;;;10.13;9.83;;;4.50;99.90;;;;;;5106595;28;20222;-83
2023/12/20 06:12:51;;;;;;;10.30;10.00;;;4.40;99.90;;;;;;5119156;28;20217;-80
2023/12/20 06:15:24;;;;;;;9.87;9.57;;;4.40;99.90;;;;;;5120413;27;20240;-83
2023/12/20 06:17:54;;;;;;;9.97;9.67;;;4.40;99.90;;;;;;5107421;27;20232;-83
2023/12/20 06:20:21;;;;;;;10.27;9.97;;;4.40;99.90;;;;;;5103784;28;20324;-83
2023/12/20 06:22:49;;;;;;;10.10;9.80;;;4.40;99.90;;;;;;5105451;28;20220;-83
2023/12/20 06:25:17;;;;;;;10.27;9.97;;;4.30;99.90;;;;;;5109301;28;20225;-84
2023/12/20 06:27:44;;;;;;;10.37;10.07;;;4.40;99.90;;;;;;5116338;27;20344;-83
2023/12/20 06:30:13;;;;;;;10.70;10.40;;;4.40;99.90;;;;;;5114400;28;20221;-83
2023/12/20 06:32:42;;;;;;;10.70;10.40;;;4.40;99.90;;;;;;5119798;27;20205;-82
2023/12/20 06:35:11;;;;;;;10.70;10.40;;;4.40;99.90;;;;;;5119945;27;20205;-81
2023/12/20 06:38:01;;;;;;;10.60;10.30;;;4.40;99.90;;;;;;5105677;28;20248;-84
2023/12/20 06:40:28;;;;;;;10.60;10.30;;;4.40;99.90;;;;;;5104633;28;20261;-83
2023/12/20 06:42:56;;;;;;;10.37;10.07;;;4.40;99.90;;;;;;5103776;28;20317;-84
2023/12/20 06:45:23;;;;;;;10.47;10.17;;;4.40;99.90;;;;;;5103251;28;20290;-84
2023/12/20 06:47:51;;;;;;;10.27;9.97;;;4.40;99.90;;;;;;5102667;28;20239;-84
2023/12/20 06:50:20;;;;;;;10.43;10.13;;;4.40;99.90;;;;;;5103069;28;20317;-84
2023/12/20 06:52:48;;;;;;;10.20;9.90;;;4.40;99.90;;;;;;5103370;28;20292;-85
2023/12/20 06:55:15;;;;;;;10.20;9.90;;;4.40;99.90;;;;;;5104518;28;20312;-85
2023/12/20 06:57:46;;;;;;;10.20;9.90;;;4.50;99.90;;;;;;5102953;28;20234;-85
2023/12/20 07:00:17;;;;;;;10.40;10.10;;;4.40;99.90;;;;;;5102088;28;20229;-82
2023/12/20 07:02:47;;;;;;;9.87;9.57;;;4.50;99.90;;;;;;5102366;28;20328;-83
2023/12/20 07:05:20;;;;;;;10.00;9.70;;;4.50;99.90;;;;;;5102362;28;20379;-83
2023/12/20 07:07:47;;;;;;;10.37;10.07;;;4.50;99.90;;;;;;5102050;28;20269;-83
2023/12/20 07:10:15;;;;;;;10.60;10.30;;;4.50;99.90;;;;;;5101358;28;21216;-83
2023/12/20 07:12:43;;;;;;;10.90;10.60;;;4.50;99.90;;;;;;5102155;28;20234;-83
2023/12/20 07:15:12;;;;;;;10.80;10.50;;;4.50;99.90;;;;;;5101339;28;20463;-83
2023/12/20 07:17:39;;;;;;;10.60;10.30;;;4.60;99.90;;;;;;5104980;28;20226;-82
2023/12/20 07:20:10;;;;;;;10.70;10.40;;;4.60;99.90;;;;;;5103843;28;20237;-83
2023/12/20 07:22:39;;;;;;;10.50;10.20;;;4.60;99.90;;;;;;5102597;28;20251;-83
2023/12/20 07:25:08;;;;;;;10.57;10.27;;;4.60;99.90;;;;;;5102160;28;20221;-84
2023/12/20 07:27:35;;;;;;;10.50;10.20;;;4.70;99.90;;;;;;5102713;28;20280;-83
2023/12/20 07:30:03;;;;;;;10.40;10.10;;;4.80;99.90;;;;;;5102015;28;20229;-83
2023/12/20 07:32:32;;;;;;;10.00;9.70;;;4.70;99.90;;;;;;5102678;28;20275;-84
2023/12/20 07:34:59;;;;;;;10.07;9.77;;;4.70;99.90;;;;;;5102615;28;20239;-84
2023/12/20 07:37:26;;;;;;;9.80;9.50;;;4.70;99.90;;;;;;5102004;28;20233;-83
2023/12/20 07:39:55;;;;;;;10.00;9.70;;;4.70;99.90;;;;;;5102680;28;20225;-84
2023/12/20 07:42:22;;;;;;;9.20;8.90;;;4.80;99.90;;;;;;5102531;28;20237;-83
2023/12/20 07:44:50;;;;;;;9.40;9.10;;;4.80;99.90;;;;;;5108834;28;20221;-82
2023/12/20 07:47:21;;;;;;;10.10;9.80;;;4.90;99.90;;;;;;5111525;28;20225;-82
2023/12/20 07:49:49;;;;;;;9.77;9.47;;;4.90;99.90;;;;;;5115209;28;20225;-81
2023/12/20 07:52:16;;;;;;;9.93;9.63;;;4.90;99.90;;;;;;5111225;28;20232;-83
2023/12/20 07:54:44;;;;;;;10.00;9.70;;;4.90;99.90;;;;;;5112713;28;20276;-82
2023/12/20 07:57:12;;;;;;;10.00;9.70;;;5.00;99.90;;;;;;5110580;28;20311;-82
2023/12/20 07:59:39;;;;;;;10.10;9.80;;;5.00;99.90;;;;;;5105907;28;20232;-84
2023/12/20 08:02:07;;;;;;;10.20;9.90;;;5.00;99.90;;;;;;5107758;28;20248;-83
2023/12/20 08:04:35;;;;;;;10.00;9.70;;;5.00;99.90;;;;;;5107509;28;20237;-84
2023/12/20 08:07:02;;;;;;;10.20;9.90;;;5.00;99.90;;;;;;5107114;28;20229;-83
2023/12/20 08:09:29;;;;;;;9.83;9.53;;;5.00;99.90;;;;;;5107159;28;20327;-82
2023/12/20 08:11:59;;;;;;;9.50;9.20;;;5.00;99.90;;;;;;5106607;28;20306;-83
2023/12/20 08:14:28;;;;;;;9.97;9.67;;;5.00;99.90;;;;;;5106459;28;20235;-83
2023/12/20 08:16:55;;;;;;;9.77;9.47;;;5.10;99.90;;;;;;5110727;28;20225;-81
2023/12/20 08:19:22;;;;;;;9.73;9.43;;;5.10;99.90;;;;;;5107728;28;20379;-84
2023/12/20 08:21:50;;;;;;;10.20;9.90;;;5.10;99.90;;;;;;5107105;28;20260;-86
2023/12/20 08:24:17;;;;;;;10.50;10.20;;;5.10;99.90;;;;;;5106309;28;20293;-83
2023/12/20 08:26:46;;;;;;;10.87;10.57;;;5.10;99.90;;;;;;5106549;28;20291;-83
2023/12/20 08:29:14;;;;;;;10.60;10.30;;;5.20;99.90;;;;;;5105443;28;20229;-84
2023/12/20 08:31:43;;;;;;;10.70;10.40;;;5.10;99.90;;;;;;5106455;28;20233;-83
2023/12/20 08:34:12;;;;;;;10.03;9.73;;;5.10;99.90;;;;;;5106184;28;20233;-84
2023/12/20 08:36:39;;;;;;;11.00;10.70;;;5.20;99.90;;;;;;5105086;28;20380;-83
2023/12/20 08:39:08;;;;;;;10.80;10.50;;;5.30;99.90;;;;;;5106363;28;20391;-82
2023/12/20 08:41:36;;;;;;;10.80;10.50;;;5.30;99.90;;;;;;5103688;28;20233;-83
2023/12/20 08:44:04;;;;;;;10.50;10.20;;;5.30;99.90;;;;;;5104678;28;20267;-82
2023/12/20 08:46:31;;;;;;;10.43;10.13;;;5.30;99.90;;;;;;5105698;28;20225;-82
2023/12/20 08:49:00;;;;;;;10.80;10.50;;;5.30;99.90;;;;;;5104298;28;20217;-82
2023/12/20 08:51:27;;;;;;;10.60;10.30;;;5.30;99.90;;;;;;5103899;28;20234;-81
2023/12/20 08:53:55;;;;;;;11.00;10.70;;;5.20;99.90;;;;;;5105736;28;20240;-82
2023/12/20 08:56:27;;;;;;;10.87;10.57;;;5.20;99.90;;;;;;5105453;28;20229;-82
2023/12/20 08:58:54;;;;;;;10.60;10.30;;;5.20;99.90;;;;;;5106397;28;20332;-83
2023/12/20 09:01:22;;;;;;;11.30;10.90;;;5.20;99.90;;;;;;5113353;27;20251;-84
2023/12/20 09:03:49;;;;;;;10.50;10.20;;;5.20;99.90;;;;;;5105545;28;20230;-82
2023/12/20 09:06:18;;;;;;;10.87;10.57;;;5.30;99.90;;;;;;5104007;28;20225;-83
2023/12/20 09:08:46;;;;;;;10.63;10.33;;;5.40;99.90;;;;;;5104542;28;20242;-82
2023/12/20 09:11:13;;;;;;;10.57;10.27;;;5.50;99.90;;;;;;5104337;28;20241;-83
2023/12/20 09:13:41;;;;;;;10.70;10.40;;;5.50;99.90;;;;;;5104526;28;20233;-82
2023/12/20 09:16:08;;;;;;;10.43;10.13;;;5.50;99.90;;;;;;5104331;28;20260;-82
2023/12/20 09:18:36;;;;;;;10.70;10.40;;;5.50;99.90;;;;;;5104617;28;20225;-84
2023/12/20 09:21:03;;;;;;;10.30;10.00;;;5.50;99.90;;;;;;5104180;28;20218;-84
2023/12/20 09:23:32;;;;;;;10.13;9.83;;;5.60;99.90;;;;;;5104971;28;20225;-83
2023/12/20 09:26:02;;;;;;;10.50;10.20;;;5.70;99.90;;;;;;5103808;28;20237;-84
2023/12/20 09:28:36;;;;;;;10.40;10.10;;;6.00;99.90;;;;;;5104314;28;20292;-82
2023/12/20 09:31:05;;;;;;;10.53;10.23;;;6.20;99.90;;;;;;5104392;28;20406;-81
2023/12/20 09:33:33;;;;;;;10.37;10.07;;;6.30;99.90;;;;;;5104850;28;20329;-82
2023/12/20 09:36:00;;;;;;;10.23;9.93;;;6.40;99.90;;;;;;5105054;28;20227;-82
2023/12/20 09:38:28;;;;;;;10.20;9.90;;;6.50;99.90;;;;;;5104398;28;20248;-82
2023/12/20 09:40:57;;;;;;;10.37;10.07;;;6.60;99.90;;;;;;5104563;28;20237;-82
2023/12/20 09:43:29;;;;;;;10.20;9.90;;;6.70;99.90;;;;;;5104300;28;20225;-84
2023/12/20 09:46:02;;;;;;;10.40;10.10;;;6.80;99.90;;;;;;5106068;28;20260;-81
2023/12/20 09:48:29;;;;;;;10.40;10.10;;;6.90;99.90;;;;;;5109291;28;20320;-78
2023/12/20 09:50:57;;;;;;;10.37;10.07;;;7.00;99.90;;;;;;5107603;28;20237;-81
2023/12/20 09:53:29;;;;;;;10.40;10.10;;;7.20;99.90;;;;;;5103398;28;20237;-82
2023/12/20 09:56:00;;;;;;;10.37;10.07;;;7.40;99.90;;;;;;5101335;28;20238;-83
2023/12/20 09:58:28;;;;;;;10.70;10.40;;;7.40;99.90;;;;;;5104580;28;20295;-84
2023/12/20 10:01:05;;;;;;;10.23;9.93;;;7.40;99.90;;;;;;5106905;28;20209;-83
2023/12/20 10:03:36;;;;;;;9.93;9.63;;;7.60;99.90;;;;;;5104283;28;20283;-81
2023/12/20 10:06:03;;;;;;;10.40;10.10;;;7.60;99.90;;;;;;5104218;28;20318;-82
2023/12/20 10:08:32;;;;;;;10.33;10.03;;;7.70;99.90;;;;;;5102861;28;20218;-82
2023/12/20 10:11:02;;;;;;;10.43;10.13;;;7.90;99.90;;;;;;5100610;28;20312;-81
2023/12/20 10:13:30;;;;;;;10.60;10.30;;;7.90;99.90;;;;;;5108474;28;20247;-81
2023/12/20 10:16:02;;;;;;;10.50;10.20;;;7.70;99.90;;;;;;5103226;28;20233;-83
2023/12/20 10:18:31;;;;;;;10.73;10.43;;;7.50;99.90;;;;;;5103820;28;20290;-81
2023/12/20 10:20:58;;;;;;;10.70;10.40;;;7.30;99.90;;;;;;5103101;28;20217;-81
2023/12/20 10:23:26;;;;;;;11.00;10.70;;;7.20;99.90;;;;;;5102988;28;20229;-83
2023/12/20 10:26:03;;;;;;;10.83;10.53;;;7.10;99.90;;;;;;5111970;28;20236;-82
2023/12/20 10:28:35;;;;;;;10.63;10.33;;;6.90;99.90;;;;;;5111132;28;20220;-82
2023/12/20 10:31:02;;;;;;;11.00;10.70;;;6.80;99.90;;;;;;5102957;28;20233;-82
2023/12/20 10:33:32;;;;;;;10.30;10.00;;;6.70;99.90;;;;;;5103023;28;20237;-81
2023/12/20 10:36:00;;;;;;;10.40;10.10;;;6.80;99.90;;;;;;5103621;28;20234;-83
2023/12/20 10:38:29;;;;;;;10.40;10.10;;;6.80;99.90;;;;;;5104019;28;20233;-82
2023/12/20 10:41:01;;;;;;;10.43;10.13;;;6.80;99.90;;;;;;5103618;28;20239;-81
2023/12/20 10:43:30;;;;;;;10.47;10.17;;;6.80;99.90;;;;;;5109490;28;20225;-82
2023/12/20 10:46:01;;;;;;;10.40;10.10;;;6.80;99.90;;;;;;5105055;28;20260;-82
2023/12/20 10:48:29;;;;;;;10.33;10.03;;;6.90;99.90;;;;;;5105115;28;20233;-82
2023/12/20 10:51:06;;;;;;;10.70;10.40;;;6.80;99.90;;;;;;5104159;28;20230;-82
2023/12/20 10:53:36;;;;;;;10.40;10.10;;;6.80;99.90;;;;;;5103536;28;20241;-81
2023/12/20 10:56:07;;;;;;;10.67;10.37;;;6.60;99.90;;;;;;5108813;28;20288;-82
2023/12/20 10:58:40;;;;;;;10.80;10.50;;;6.50;99.90;;;;;;5106815;27;21076;-83
2023/12/20 11:01:07;;;;;;;10.70;10.40;;;6.40;99.90;;;;;;5107305;28;20237;-83
2023/12/20 11:03:38;;;;;;;10.63;10.33;;;6.30;99.90;;;;;;5104854;28;20233;-82
2023/12/20 11:06:19;;;;;;;10.60;10.30;;;6.30;99.90;;;;;;5104201;28;20233;-82
2023/12/20 11:08:53;;;;;;;10.70;10.40;;;6.30;99.90;;;;;;5103984;28;20231;-82
2023/12/20 11:11:28;;;;;;;10.63;10.33;;;6.40;99.90;;;;;;5104143;28;20236;-83
2023/12/20 11:14:01;;;;;;;10.50;10.20;;;6.30;99.90;;;;;;5100626;28;20228;-82
2023/12/20 11:16:29;;;;;;;10.60;10.30;;;6.20;99.90;;;;;;5106095;28;20763;-81
2023/12/20 11:18:56;;;;;;;10.37;10.07;;;6.10;99.90;;;;;;5098818;28;20221;-81
2023/12/20 11:21:23;;;;;;;10.43;10.13;;;6.00;99.90;;;;;;5107913;28;20230;-83
2023/12/20 11:23:51;;;;;;;10.33;10.03;;;5.90;99.90;;;;;;5098350;28;20225;-81
2023/12/20 11:26:25;;;;;;;10.67;10.37;;;5.90;99.90;;;;;;5106214;28;20263;-83
2023/12/20 11:28:53;;;;;;;10.53;10.23;;;5.90;99.90;;;;;;5106241;28;20228;-84
2023/12/20 11:31:20;;;;;;;10.57;10.27;;;5.80;99.90;;;;;;5103981;28;20229;-83
2023/12/20 11:33:48;;;;;;;10.40;10.10;;;5.80;99.90;;;;;;5105307;28;20236;-82
2023/12/20 11:36:22;;;;;;;10.40;10.10;;;5.80;99.90;;;;;;5107151;28;20229;-82
2023/12/20 11:39:08;;;;;;;;;;;;;;;;;;;;;
2023/12/20 11:41:38;;;;;;;10.40;10.10;;;5.90;99.90;;;;;;5107532;28;20240;-83
2023/12/20 11:44:06;;;;;;;10.80;10.50;;;5.90;99.90;;;;;;5105564;28;20228;-75
2023/12/20 11:46:38;;;;;;;10.40;10.10;;;5.90;99.90;;;;;;5105593;28;20233;-83
2023/12/20 11:49:10;;;;;;;10.33;10.03;;;6.00;99.90;;;;;;5106128;28;20236;-87
2023/12/20 11:51:47;;;;;;;10.40;10.10;;;6.00;99.90;;;;;;5204077;22;20221;-87
2023/12/20 11:54:20;;;;;;;10.73;10.43;;;6.00;99.90;;;;;;5124096;28;20354;-86
2023/12/20 11:59:32;;;;;;;10.23;9.93;;;5.90;99.90;;;;;;5110282;28;20225;-86
2023/12/20 12:02:03;;;;;;;10.53;10.23;;;5.90;99.90;;;;;;5117871;28;20222;-87
2023/12/20 12:04:51;;;;;;;10.30;10.00;;;5.90;99.90;;;;;;5102995;28;20234;-87
2023/12/20 12:10:07;;;;;;;10.73;10.43;;;5.90;99.90;;;;;;5089309;28;20298;-86
2023/12/20 12:15:24;;;;;;;10.30;10.00;;;5.80;99.90;;;;;;5109793;28;20300;-85
2023/12/20 12:18:05;;;;;;;10.40;10.10;;;5.90;99.90;;;;;;5102910;28;20233;-85
2023/12/20 12:23:36;;;;;;;10.13;9.83;;;6.00;99.90;;;;;;5111939;28;20225;-87
2023/12/20 12:26:06;;;;;;;10.50;10.20;;;6.00;99.90;;;;;;5111932;28;20289;-85
2023/12/20 12:28:43;;;;;;;10.60;10.30;;;6.10;99.90;;;;;;5116702;28;20229;-86
2023/12/20 12:33:59;;;;;;;10.07;9.77;;;6.10;99.90;;;;;;5113428;28;20217;-87
2023/12/20 12:36:38;;;;;;;10.33;10.03;;;6.10;99.90;;;;;;5111316;28;20225;-88
2023/12/20 12:39:07;;;;;;;10.20;9.90;;;6.10;99.90;;;;;;5092048;28;20221;-87
2023/12/20 12:41:37;;;;;;;10.03;9.73;;;6.10;99.90;;;;;;5117553;28;20273;-87
2023/12/20 12:44:09;;;;;;;10.17;9.87;;;6.20;99.90;;;;;;5111979;28;20217;-88
2023/12/20 12:46:36;;;;;;;10.30;10.00;;;6.20;99.90;;;;;;5111208;28;20259;-88
2023/12/20 12:49:05;;;;;;;10.23;9.93;;;6.20;99.90;;;;;;5110040;28;20256;-87
2023/12/20 12:51:44;;;;;;;9.93;9.63;;;6.30;99.90;;;;;;5110176;28;20295;-87
2023/12/20 12:54:15;;;;;;;9.77;9.47;;;6.30;99.90;;;;;;5109042;28;20223;-87
2023/12/20 12:56:43;;;;;;;9.70;9.40;;;6.30;99.90;;;;;;5116739;28;20228;-87
2023/12/20 13:01:58;;;;;;;9.73;9.43;;;6.40;99.90;;;;;;5088855;28;20237;-88
2023/12/20 13:04:38;;;;;;;10.13;9.83;;;6.40;99.90;;;;;;5106165;28;20229;-86
2023/12/20 13:07:07;;;;;;;10.30;10.00;;;6.30;99.90;;;;;;5104799;28;20230;-88
2023/12/20 13:09:36;;;;;;;10.10;9.80;;;6.30;99.90;;;;;;5107480;28;20229;-89
2023/12/20 13:12:06;;;;;;;10.00;9.70;;;6.20;99.90;;;;;;5104226;28;20253;-87
2023/12/20 13:14:54;;;;;;;10.17;9.87;;;6.10;99.90;;;;;;5098627;28;20238;-88
2023/12/20 13:17:22;;;;;;;10.07;9.77;;;6.10;99.90;;;;;;5109215;28;20226;-87
2023/12/20 13:19:51;;;;;;;10.17;9.87;;;6.10;99.90;;;;;;5090026;28;20230;-86
2023/12/20 13:22:20;;;;;;;10.13;9.83;;;6.10;99.90;;;;;;5102328;28;20230;-86
2023/12/20 13:25:02;;;;;;;10.10;9.80;;;6.00;99.90;;;;;;5109198;28;20221;-86
2023/12/20 13:27:38;;;;;;;10.40;10.10;;;6.10;99.90;;;;;;5106477;28;20277;-86
2023/12/20 13:30:17;;;;;;;10.40;10.10;;;6.10;99.90;;;;;;5095146;28;20324;-86
2023/12/20 13:32:48;;;;;;;9.80;9.50;;;6.30;99.90;;;;;;5102023;28;20298;-87
2023/12/20 13:38:18;;;;;;;9.70;9.40;;;6.40;99.90;;;;;;5105576;28;20236;-84
2023/12/20 13:40:48;;;;;;;10.00;9.70;;;6.40;99.90;;;;;;5112671;28;20333;-87
2023/12/20 13:43:20;;;;;;;10.03;9.73;;;6.30;99.90;;;;;;5108859;28;20218;-86
2023/12/20 13:45:49;;;;;;;10.27;9.97;;;6.20;99.90;;;;;;5109200;28;20229;-85
2023/12/20 13:48:17;;;;;;;10.17;9.87;;;6.10;99.90;;;;;;5101190;28;20283;-84
2023/12/20 13:50:46;;;;;;;10.47;10.17;;;6.00;99.90;;;;;;5099692;28;20241;-84
2023/12/20 13:53:25;;;;;;;9.90;9.60;;;5.90;99.90;;;;;;5090051;28;20234;-84
2023/12/20 13:55:57;;;;;;;10.00;9.70;;;5.90;99.90;;;;;;5083232;28;20220;-84
2023/12/20 13:58:25;;;;;;;9.93;9.63;;;5.80;99.90;;;;;;5101338;28;20234;-83
2023/12/20 14:01:02;;;;;;;10.10;9.80;;;5.80;99.90;;;;;;5102115;28;20225;-84
2023/12/20 14:03:33;;;;;;;9.60;9.30;;;5.80;99.90;;;;;;5102324;28;20316;-85
2023/12/20 14:06:15;;;;;;;10.20;9.90;;;5.90;99.90;;;;;;5112701;28;20226;-85